createdAt,value
2018-12-18T00:01:49.154Z,36.83
2018-12-18T00:04:18.390Z,24.23
2018-12-18T00:06:46.798Z,34.07
2018-12-18T00:09:15.265Z,32.13
2018-12-18T00:11:43.748Z,32.87
2018-12-18T00:14:12.255Z,25.83
2018-12-18T00:16:40.774Z,27.60
2018-12-18T00:19:09.200Z,20.67
2018-12-18T00:21:37.650Z,23.83
2018-12-18T00:24:06.164Z,24.33
2018-12-18T00:26:34.586Z,23.53
2018-12-18T00:29:03.028Z,18.57
2018-12-18T00:31:35.041Z,12.33
2018-12-18T00:34:03.734Z,10.97
2018-12-18T00:36:32.823Z,10.33
2018-12-18T00:39:01.289Z,9.53
2018-12-18T00:41:29.988Z,8.90
2018-12-18T00:43:58.448Z,8.63
2018-12-18T00:46:26.850Z,8.33
2018-12-18T00:48:55.246Z,8.00
2018-12-18T00:51:23.621Z,8.17
2018-12-18T00:53:52.062Z,9.30
2018-12-18T00:56:20.789Z,8.53
2018-12-18T00:58:49.187Z,8.27
2018-12-18T01:01:17.561Z,9.10
2018-12-18T01:03:52.621Z,9.30
2018-12-18T01:06:16.749Z,8.90
2018-12-18T01:08:45.241Z,10.47
2018-12-18T01:11:13.624Z,12.20
2018-12-18T01:13:43.242Z,12.70
2018-12-18T01:16:11.628Z,15.83
2018-12-18T01:18:40.054Z,12.40
2018-12-18T01:21:08.456Z,10.37
2018-12-18T01:23:37.563Z,9.53
2018-12-18T01:26:05.936Z,11.07
2018-12-18T01:28:34.341Z,9.87
2018-12-18T01:31:02.816Z,9.83
2018-12-18T01:33:31.384Z,8.70
2018-12-18T01:35:59.773Z,9.60
2018-12-18T01:38:28.163Z,8.67
2018-12-18T01:40:56.593Z,10.53
2018-12-18T01:43:25.030Z,9.43
2018-12-18T01:45:53.592Z,8.83
2018-12-18T01:48:21.976Z,9.90
2018-12-18T01:50:50.380Z,9.93
2018-12-18T01:53:18.780Z,9.00
2018-12-18T01:55:47.956Z,9.43
2018-12-18T01:58:16.401Z,10.03
2018-12-18T02:00:44.824Z,10.10
2018-12-18T02:03:13.192Z,11.17
2018-12-18T02:05:41.597Z,10.33
2018-12-18T02:08:09.961Z,10.03
2018-12-18T02:10:39.180Z,10.57
2018-12-18T02:13:07.536Z,9.97
2018-12-18T02:15:35.929Z,9.33
2018-12-18T02:18:04.459Z,9.57
2018-12-18T02:20:32.829Z,9.83
2018-12-18T02:23:01.197Z,7.87
2018-12-18T02:25:29.623Z,9.37
2018-12-18T02:27:57.980Z,9.57
2018-12-18T02:30:26.373Z,9.27
2018-12-18T02:32:54.760Z,9.30
2018-12-18T02:35:23.181Z,9.87
2018-12-18T02:37:51.557Z,9.43
2018-12-18T02:40:20.244Z,9.13
2018-12-18T02:42:48.672Z,9.47
2018-12-18T02:45:17.088Z,10.30
2018-12-18T02:47:45.474Z,9.57
2018-12-18T02:50:13.899Z,9.77
2018-12-18T02:52:42.282Z,10.27
2018-12-18T02:55:10.692Z,9.53
2018-12-18T02:57:39.073Z,9.97
2018-12-18T03:00:08.257Z,10.90
2018-12-18T03:02:36.668Z,10.10
2018-12-18T03:05:05.664Z,10.10
2018-12-18T03:07:34.158Z,11.17
2018-12-18T03:10:02.573Z,10.57
2018-12-18T03:12:30.961Z,10.67
2018-12-18T03:14:59.596Z,10.70
2018-12-18T03:17:27.969Z,9.93
2018-12-18T03:19:56.483Z,11.10
2018-12-18T03:22:24.851Z,11.20
2018-12-18T03:24:53.257Z,10.80
2018-12-18T03:27:21.674Z,11.80
2018-12-18T03:29:50.091Z,13.07
2018-12-18T03:32:23.190Z,13.90
2018-12-18T03:34:51.594Z,13.17
2018-12-18T03:37:20.021Z,13.07
2018-12-18T03:39:48.413Z,15.07
2018-12-18T03:42:16.837Z,14.43
2018-12-18T03:44:45.218Z,14.40
2018-12-18T03:47:13.625Z,14.93
2018-12-18T03:49:42.228Z,13.80
2018-12-18T03:52:10.615Z,13.90
2018-12-18T03:54:39.047Z,13.23
2018-12-18T03:57:07.435Z,15.00
2018-12-18T03:59:35.846Z,14.93
2018-12-18T04:02:04.357Z,15.70
2018-12-18T04:04:35.701Z,16.47
2018-12-18T04:07:03.235Z,16.73
2018-12-18T04:09:32.360Z,17.00
2018-12-18T04:12:06.259Z,19.17
2018-12-18T04:14:34.659Z,20.13
2018-12-18T04:17:03.109Z,18.53
2018-12-18T04:19:31.518Z,19.23
2018-12-18T04:21:59.946Z,18.80
2018-12-18T04:24:28.352Z,21.20
2018-12-18T04:26:56.741Z,18.80
2018-12-18T04:29:25.148Z,19.97
2018-12-18T04:31:53.528Z,19.30
2018-12-18T04:34:21.922Z,19.40
2018-12-18T04:36:50.335Z,20.03
2018-12-18T04:39:18.719Z,20.90
2018-12-18T04:41:47.109Z,21.17
2018-12-18T04:44:15.508Z,19.60
2018-12-18T04:46:43.916Z,20.50
2018-12-18T04:49:12.304Z,18.47
2018-12-18T04:51:40.705Z,19.97
2018-12-18T04:54:09.235Z,19.03
2018-12-18T04:56:37.748Z,19.90
2018-12-18T04:59:06.239Z,19.53
2018-12-18T05:01:34.767Z,20.13
2018-12-18T05:04:04.014Z,18.03
2018-12-18T05:06:32.647Z,18.83
2018-12-18T05:09:01.087Z,18.67
2018-12-18T05:11:29.484Z,18.83
2018-12-18T05:13:57.863Z,19.37
2018-12-18T05:16:26.404Z,18.97
2018-12-18T05:18:54.865Z,18.43
2018-12-18T05:21:23.264Z,18.63
2018-12-18T05:23:51.717Z,18.27
2018-12-18T05:26:20.104Z,18.37
2018-12-18T05:28:48.949Z,19.23
2018-12-18T05:31:17.805Z,19.40
2018-12-18T05:33:46.244Z,19.37
2018-12-18T05:36:15.598Z,18.77
2018-12-18T05:38:44.149Z,17.40
2018-12-18T05:41:12.550Z,18.63
2018-12-18T05:43:41.011Z,19.43
2018-12-18T05:46:09.467Z,17.80
2018-12-18T05:48:38.028Z,18.70
2018-12-18T05:51:06.420Z,18.73
2018-12-18T05:53:34.797Z,17.33
2018-12-18T05:56:03.200Z,18.27
2018-12-18T05:58:31.589Z,17.80
2018-12-18T06:01:00.076Z,18.07
2018-12-18T06:03:28.572Z,17.20
2018-12-18T06:05:57.100Z,15.90
2018-12-18T06:08:26.112Z,17.17
2018-12-18T06:10:54.476Z,16.27
2018-12-18T06:13:22.860Z,15.47
2018-12-18T06:15:51.340Z,15.30
2018-12-18T06:18:19.748Z,15.83
2018-12-18T06:20:48.172Z,16.50
2018-12-18T06:23:16.692Z,15.33
2018-12-18T06:25:45.058Z,15.00
2018-12-18T06:28:13.625Z,14.80
2018-12-18T06:30:42.078Z,15.30
2018-12-18T06:33:10.531Z,14.93
2018-12-18T06:35:38.927Z,14.37
2018-12-18T06:38:07.316Z,15.80
2018-12-18T06:40:35.836Z,16.83
2018-12-18T06:43:04.457Z,16.07
2018-12-18T06:45:32.897Z,16.03
2018-12-18T06:48:01.347Z,15.53
2018-12-18T06:50:29.743Z,16.43
2018-12-18T06:52:58.168Z,15.23
2018-12-18T06:55:26.556Z,15.27
2018-12-18T06:57:55.277Z,16.03
2018-12-18T07:00:23.699Z,16.60
2018-12-18T07:02:52.152Z,15.50
2018-12-18T07:05:20.557Z,15.87
2018-12-18T07:07:49.476Z,16.50
2018-12-18T07:10:17.929Z,16.93
2018-12-18T07:12:46.464Z,17.60
2018-12-18T07:15:14.904Z,18.57
2018-12-18T07:17:43.300Z,18.47
2018-12-18T07:20:11.698Z,17.77
2018-12-18T07:22:40.112Z,18.17
2018-12-18T07:25:08.526Z,17.63
2018-12-18T07:27:37.020Z,18.13
2018-12-18T07:30:05.976Z,16.70
2018-12-18T07:32:34.459Z,15.57
2018-12-18T07:35:02.970Z,16.37
2018-12-18T07:37:31.425Z,15.80
2018-12-18T07:39:59.800Z,14.83
2018-12-18T07:42:28.229Z,14.93
2018-12-18T07:44:56.621Z,13.83
2018-12-18T07:47:25.070Z,14.10
2018-12-18T07:49:53.497Z,13.30
2018-12-18T07:52:22.158Z,11.80
2018-12-18T07:54:50.729Z,11.57
2018-12-18T07:57:19.157Z,11.57
2018-12-18T07:59:47.564Z,11.50
2018-12-18T08:02:15.960Z,10.57
2018-12-18T08:04:44.370Z,9.73
2018-12-18T08:07:13.820Z,9.43
2018-12-18T08:09:42.206Z,9.20
2018-12-18T08:12:10.612Z,8.27
2018-12-18T08:14:39.061Z,8.47
2018-12-18T08:17:07.524Z,7.77
2018-12-18T08:19:36.011Z,8.00
2018-12-18T08:22:04.552Z,7.67
2018-12-18T08:24:39.646Z,7.30
2018-12-18T08:27:08.036Z,7.93
2018-12-18T08:29:36.413Z,8.03
2018-12-18T08:32:04.844Z,7.47
2018-12-18T08:34:33.497Z,7.33
2018-12-18T08:37:01.916Z,7.70
2018-12-18T08:39:30.394Z,8.97
2018-12-18T08:41:58.892Z,8.50
2018-12-18T08:44:27.332Z,7.60
2018-12-18T08:46:55.733Z,8.97
2018-12-18T08:49:24.470Z,10.80
2018-12-18T08:51:52.972Z,11.50
2018-12-18T08:54:21.430Z,11.10
2018-12-18T08:56:49.921Z,10.17
2018-12-18T08:59:18.349Z,9.43
2018-12-18T09:01:46.827Z,9.40
2018-12-18T09:04:15.239Z,9.00
2018-12-18T09:06:43.643Z,8.60
2018-12-18T09:09:12.100Z,9.67
2018-12-18T09:11:40.537Z,8.57
2018-12-18T09:14:08.993Z,12.67
2018-12-18T09:16:42.976Z,9.50
2018-12-18T09:19:11.421Z,8.23
2018-12-18T09:21:39.880Z,7.23
2018-12-18T09:24:08.285Z,7.57
2018-12-18T09:26:36.676Z,7.63
2018-12-18T09:29:05.205Z,8.00
2018-12-18T09:31:33.840Z,7.17
2018-12-18T09:34:02.273Z,7.63
2018-12-18T09:36:30.675Z,6.87
2018-12-18T09:39:04.452Z,7.33
2018-12-18T09:41:38.183Z,7.00
2018-12-18T09:44:12.701Z,7.03
2018-12-18T09:46:41.077Z,7.03
2018-12-18T09:49:09.515Z,7.30
2018-12-18T09:51:37.956Z,6.07
2018-12-18T09:54:06.504Z,6.90
2018-12-18T09:56:40.376Z,6.60
2018-12-18T09:59:08.955Z,7.00
2018-12-18T10:01:37.424Z,7.03
2018-12-18T10:04:05.843Z,7.00
2018-12-18T10:06:34.288Z,6.50
2018-12-18T10:09:09.609Z,7.03
2018-12-18T10:11:34.625Z,6.03
2018-12-18T10:14:03.161Z,6.83
2018-12-18T10:16:31.586Z,6.80
2018-12-18T10:19:00.124Z,6.60
2018-12-18T10:21:28.506Z,6.80
2018-12-18T10:23:57.166Z,6.83
2018-12-18T10:26:25.544Z,5.43
2018-12-18T10:28:53.946Z,6.63
2018-12-18T10:31:22.369Z,5.93
2018-12-18T10:33:50.768Z,6.10
2018-12-18T10:36:19.185Z,7.37
2018-12-18T10:38:47.624Z,7.27
2018-12-18T10:41:16.072Z,6.87
2018-12-18T10:43:44.501Z,7.80
2018-12-18T10:46:12.945Z,6.43
2018-12-18T10:48:41.361Z,6.37
2018-12-18T10:51:10.749Z,6.60
2018-12-18T10:53:39.273Z,6.30
2018-12-18T10:56:07.757Z,5.97
2018-12-18T10:58:36.177Z,5.50
2018-12-18T11:01:10.452Z,5.93
2018-12-18T11:03:38.839Z,5.43
2018-12-18T11:06:10.095Z,5.53
2018-12-18T11:08:37.703Z,5.50
2018-12-18T11:11:06.108Z,5.50
2018-12-18T11:13:34.897Z,5.30
2018-12-18T11:16:03.485Z,6.10
2018-12-18T11:18:31.886Z,6.07
2018-12-18T11:21:00.340Z,6.50
2018-12-18T11:23:28.775Z,6.43
2018-12-18T11:25:57.169Z,6.47
2018-12-18T11:28:25.552Z,5.83
2018-12-18T11:31:00.594Z,6.20
2018-12-18T11:33:28.989Z,5.57
2018-12-18T11:35:57.426Z,5.80
2018-12-18T11:38:25.864Z,4.37
2018-12-18T11:40:54.349Z,4.70
2018-12-18T11:43:22.734Z,4.93
2018-12-18T11:45:51.141Z,7.17
2018-12-18T11:48:19.585Z,5.30
2018-12-18T11:50:47.980Z,6.30
2018-12-18T11:53:16.442Z,5.23
2018-12-18T11:55:44.937Z,6.43
2018-12-18T11:58:13.326Z,5.60
2018-12-18T12:00:41.813Z,6.30
2018-12-18T12:03:10.946Z,5.20
2018-12-18T12:05:39.316Z,5.43
2018-12-18T12:08:07.805Z,4.80
2018-12-18T12:10:36.331Z,4.37
2018-12-18T12:13:04.863Z,8.07
2018-12-18T12:15:33.270Z,5.47
2018-12-18T12:18:01.831Z,10.10
2018-12-18T12:20:30.294Z,7.37
2018-12-18T12:22:58.746Z,7.60
2018-12-18T12:25:27.156Z,7.30
2018-12-18T12:28:00.897Z,7.60
2018-12-18T12:30:29.345Z,5.80
2018-12-18T12:32:57.781Z,4.53
2018-12-18T12:35:26.180Z,7.57
2018-12-18T12:37:54.740Z,4.83
2018-12-18T12:40:23.136Z,5.43
2018-12-18T12:42:51.533Z,3.50
2018-12-18T12:45:20.080Z,5.10
2018-12-18T12:47:58.821Z,4.97
2018-12-18T12:50:27.621Z,4.83
2018-12-18T12:52:56.750Z,7.03
2018-12-18T12:55:25.280Z,7.40
2018-12-18T12:57:53.678Z,6.93
2018-12-18T13:00:22.078Z,4.80
2018-12-18T13:02:50.509Z,5.90
2018-12-18T13:05:18.927Z,4.77
2018-12-18T13:07:47.347Z,7.30
2018-12-18T13:10:15.859Z,8.33
2018-12-18T13:12:44.246Z,4.30
2018-12-18T13:15:12.716Z,3.90
2018-12-18T13:17:41.209Z,3.60
2018-12-18T13:20:09.709Z,3.93
2018-12-18T13:22:38.100Z,3.20
2018-12-18T13:25:06.741Z,3.40
2018-12-18T13:27:35.219Z,4.63
2018-12-18T13:30:03.945Z,4.13
2018-12-18T13:32:32.504Z,4.10
2018-12-18T13:35:01.179Z,3.63
2018-12-18T13:37:29.633Z,3.57
2018-12-18T13:39:58.074Z,3.90
2018-12-18T13:42:26.726Z,4.10
2018-12-18T13:44:55.151Z,3.73
2018-12-18T13:47:27.197Z,4.07
2018-12-18T13:49:54.133Z,3.03
2018-12-18T13:52:22.619Z,4.00
2018-12-18T13:54:51.348Z,4.03
2018-12-18T13:57:19.822Z,4.50
2018-12-18T13:59:48.427Z,4.90
2018-12-18T14:02:17.053Z,4.33
2018-12-18T14:04:46.231Z,6.37
2018-12-18T14:07:14.805Z,3.80
2018-12-18T14:09:43.220Z,3.60
2018-12-18T14:12:11.710Z,3.37
2018-12-18T14:14:41.117Z,3.80
2018-12-18T14:17:09.638Z,4.70
2018-12-18T14:19:38.628Z,5.47
2018-12-18T14:22:07.398Z,5.03
2018-12-18T14:24:35.976Z,4.60
2018-12-18T14:27:04.611Z,3.73
2018-12-18T14:29:33.094Z,3.97
2018-12-18T14:32:01.625Z,4.30
2018-12-18T14:34:32.449Z,4.70
2018-12-18T14:37:00.880Z,4.67
2018-12-18T14:39:29.296Z,3.93
2018-12-18T14:41:57.778Z,3.80
2018-12-18T14:44:26.202Z,3.50
2018-12-18T14:46:54.619Z,3.70
2018-12-18T14:49:23.075Z,3.80
2018-12-18T14:51:51.485Z,5.23
2018-12-18T14:54:20.240Z,5.30
2018-12-18T14:56:48.816Z,4.60
2018-12-18T14:59:17.660Z,3.70
2018-12-18T15:01:46.039Z,3.90
2018-12-18T15:04:14.528Z,3.73
2018-12-18T15:06:42.976Z,3.30
2018-12-18T15:09:11.387Z,3.30
2018-12-18T15:11:43.591Z,3.03
2018-12-18T15:14:12.235Z,3.50
2018-12-18T15:19:21.792Z,6.63
2018-12-18T15:21:50.212Z,7.17
2018-12-18T15:24:18.640Z,5.90
2018-12-18T15:26:47.071Z,5.20
2018-12-18T15:29:15.502Z,5.13
2018-12-18T15:31:43.985Z,3.70
2018-12-18T15:34:12.400Z,3.30
2018-12-18T15:36:40.792Z,3.70
2018-12-18T15:39:09.215Z,5.87
2018-12-18T15:41:37.601Z,12.47
2018-12-18T15:44:06.009Z,13.80
2018-12-18T15:46:34.529Z,7.93
2018-12-18T15:49:02.975Z,9.67
2018-12-18T15:51:31.384Z,4.83
2018-12-18T15:54:05.282Z,4.10
2018-12-18T15:56:33.681Z,5.60
2018-12-18T15:59:02.108Z,19.53
2018-12-18T16:01:30.480Z,11.87
2018-12-18T16:03:58.884Z,7.33
2018-12-18T16:06:27.288Z,4.50
2018-12-18T16:08:55.681Z,4.80
2018-12-18T16:11:24.098Z,3.80
2018-12-18T16:13:52.520Z,4.20
2018-12-18T16:16:21.217Z,7.87
2018-12-18T16:18:49.668Z,6.83
2018-12-18T16:21:18.072Z,5.73
2018-12-18T16:23:46.469Z,5.13
2018-12-18T16:26:14.841Z,6.70
2018-12-18T16:28:43.303Z,5.03
2018-12-18T16:31:11.706Z,4.63
2018-12-18T16:33:40.088Z,5.63
2018-12-18T16:36:08.532Z,6.10
2018-12-18T16:38:36.888Z,4.40
2018-12-18T16:41:05.316Z,6.20
2018-12-18T16:43:33.708Z,7.63
2018-12-18T16:46:02.111Z,5.57
2018-12-18T16:48:30.481Z,4.90
2018-12-18T16:50:58.873Z,5.10
2018-12-18T16:53:27.283Z,6.50
2018-12-18T16:55:55.799Z,4.20
2018-12-18T16:58:24.189Z,4.10
2018-12-18T17:00:52.624Z,5.03
2018-12-18T17:03:20.993Z,3.70
2018-12-18T17:05:49.416Z,3.90
2018-12-18T17:08:17.810Z,4.07
2018-12-18T17:10:46.213Z,6.23
2018-12-18T17:13:14.600Z,6.80
2018-12-18T17:15:43.078Z,4.97
2018-12-18T17:18:11.456Z,4.37
2018-12-18T17:20:39.858Z,5.80
2018-12-18T17:23:08.246Z,5.23
2018-12-18T17:25:36.626Z,4.30
2018-12-18T17:28:04.992Z,5.40
2018-12-18T17:30:33.408Z,6.10
2018-12-18T17:33:01.844Z,5.63
2018-12-18T17:35:30.268Z,5.60
2018-12-18T17:37:58.669Z,5.07
2018-12-18T17:40:27.568Z,5.07
2018-12-18T17:42:55.967Z,5.70
2018-12-18T17:45:24.401Z,5.23
2018-12-18T17:47:53.157Z,6.27
2018-12-18T17:50:21.580Z,6.00
2018-12-18T17:52:50.469Z,5.17
2018-12-18T17:55:19.510Z,5.07
2018-12-18T17:57:48.056Z,5.23
2018-12-18T18:00:16.442Z,5.77
2018-12-18T18:02:44.805Z,5.87
2018-12-18T18:05:13.222Z,5.80
2018-12-18T18:07:43.153Z,4.90
2018-12-18T18:10:11.697Z,5.43
2018-12-18T18:12:40.075Z,5.37
2018-12-18T18:15:08.737Z,4.70
2018-12-18T18:17:37.158Z,5.47
2018-12-18T18:20:06.132Z,5.73
2018-12-18T18:22:35.235Z,5.30
2018-12-18T18:25:04.064Z,6.20
2018-12-18T18:27:32.542Z,6.47
2018-12-18T18:30:01.020Z,6.77
2018-12-18T18:32:29.426Z,6.30
2018-12-18T18:34:57.921Z,5.03
2018-12-18T18:37:26.425Z,5.03
2018-12-18T18:39:55.287Z,4.27
2018-12-18T18:42:23.799Z,4.13
2018-12-18T18:44:52.184Z,4.57
2018-12-18T18:47:22.353Z,4.37
2018-12-18T18:49:50.858Z,5.17
2018-12-18T18:52:19.500Z,11.70
2018-12-18T18:54:48.569Z,7.40
2018-12-18T18:57:19.024Z,5.30
2018-12-18T18:59:47.869Z,4.37
2018-12-18T19:02:16.449Z,5.27
2018-12-18T19:04:45.280Z,5.63
2018-12-18T19:07:14.284Z,4.70
2018-12-18T19:09:43.390Z,5.10
2018-12-18T19:12:12.026Z,5.10
2018-12-18T19:14:40.729Z,4.53
2018-12-18T19:17:09.602Z,4.70
2018-12-18T19:19:38.257Z,6.47
2018-12-18T19:22:07.160Z,4.53
2018-12-18T19:24:35.809Z,4.13
2018-12-18T19:27:04.941Z,4.80
2018-12-18T19:29:33.597Z,4.30
2018-12-18T19:32:02.435Z,3.97
2018-12-18T19:34:31.533Z,4.20
2018-12-18T19:37:06.773Z,3.87
2018-12-18T19:39:35.471Z,3.83
2018-12-18T19:42:04.199Z,4.43
2018-12-18T19:44:33.360Z,3.60
2018-12-18T19:47:03.169Z,4.40
2018-12-18T19:49:32.151Z,4.10
2018-12-18T19:52:00.831Z,4.77
2018-12-18T19:54:29.946Z,4.50
2018-12-18T19:56:58.899Z,4.60
2018-12-18T19:59:27.541Z,4.57
2018-12-18T20:01:56.475Z,5.17
2018-12-18T20:04:25.163Z,4.93
2018-12-18T20:06:54.089Z,4.30
2018-12-18T20:09:22.927Z,4.40
2018-12-18T20:11:51.774Z,4.50
2018-12-18T20:14:20.453Z,4.50
2018-12-18T20:16:49.429Z,5.23
2018-12-18T20:19:18.219Z,5.63
2018-12-18T20:21:46.998Z,5.20
2018-12-18T20:24:15.791Z,4.93
2018-12-18T20:26:45.101Z,5.20
2018-12-18T20:29:13.976Z,5.17
2018-12-18T20:31:42.876Z,5.50
2018-12-18T20:34:11.785Z,6.37
2018-12-18T20:36:40.451Z,6.10
2018-12-18T20:39:10.446Z,6.20
2018-12-18T20:41:39.368Z,5.67
2018-12-18T20:44:09.799Z,6.40
2018-12-18T20:46:38.666Z,6.23
2018-12-18T20:49:07.606Z,5.83
2018-12-18T20:51:36.569Z,6.20
2018-12-18T20:54:05.449Z,5.77
2018-12-18T20:56:34.040Z,5.87
2018-12-18T20:59:04.346Z,6.07
2018-12-18T21:01:34.127Z,6.30
2018-12-18T21:04:03.586Z,5.63
2018-12-18T21:06:32.471Z,5.50
2018-12-18T21:09:01.720Z,5.50
2018-12-18T21:11:30.592Z,5.67
2018-12-18T21:13:59.584Z,6.47
2018-12-18T21:16:28.825Z,5.60
2018-12-18T21:18:57.852Z,6.00
2018-12-18T21:21:26.860Z,5.87
2018-12-18T21:23:56.346Z,5.83
2018-12-18T21:26:25.248Z,5.47
2018-12-18T21:28:54.113Z,7.87
2018-12-18T21:31:23.281Z,5.90
2018-12-18T21:33:52.101Z,6.23
2018-12-18T21:36:21.209Z,5.73
2018-12-18T21:38:50.109Z,5.70
2018-12-18T21:41:19.200Z,6.17
2018-12-18T21:43:48.058Z,6.27
2018-12-18T21:46:16.988Z,6.33
2018-12-18T21:48:45.856Z,5.93
2018-12-18T21:51:14.976Z,6.33
2018-12-18T21:53:43.883Z,6.73
2018-12-18T21:56:12.641Z,6.50
2018-12-18T21:58:41.412Z,5.93
2018-12-18T22:01:10.121Z,6.77
2018-12-18T22:03:39.208Z,6.77
2018-12-18T22:06:09.648Z,7.10
2018-12-18T22:08:39.462Z,7.67
2018-12-18T22:11:08.546Z,7.50
2018-12-18T22:13:37.336Z,7.97
2018-12-18T22:16:06.311Z,7.97
2018-12-18T22:18:35.581Z,7.60
2018-12-18T22:21:04.530Z,7.30
2018-12-18T22:23:34.293Z,7.50
2018-12-18T22:26:03.561Z,7.17
2018-12-18T22:28:32.423Z,7.03
2018-12-18T22:31:01.883Z,7.67
2018-12-18T22:33:30.810Z,7.80
2018-12-18T22:35:59.975Z,8.20
2018-12-18T22:38:28.798Z,7.50
2018-12-18T22:40:57.321Z,8.30
2018-12-18T22:43:25.926Z,7.80
2018-12-18T22:45:54.370Z,7.93
2018-12-18T22:48:22.987Z,7.93
2018-12-18T22:50:52.060Z,8.33
2018-12-18T22:53:20.462Z,8.87
2018-12-18T22:55:48.908Z,8.73
2018-12-18T22:58:17.929Z,8.00
2018-12-18T23:00:55.841Z,8.30
2018-12-18T23:03:24.507Z,8.00
2018-12-18T23:05:53.513Z,8.47
2018-12-18T23:08:22.026Z,9.27
2018-12-18T23:10:50.513Z,8.57
2018-12-18T23:13:24.209Z,8.60
2018-12-18T23:15:52.709Z,8.67
2018-12-18T23:18:21.219Z,8.80
2018-12-18T23:20:49.670Z,8.23
2018-12-18T23:23:18.060Z,8.97
2018-12-18T23:25:46.485Z,8.30
2018-12-18T23:28:14.905Z,8.67
2018-12-18T23:30:44.105Z,9.30
2018-12-18T23:33:12.602Z,9.00
2018-12-18T23:35:41.154Z,8.40
2018-12-18T23:38:09.723Z,8.57
2018-12-18T23:40:38.230Z,9.70
2018-12-18T23:43:06.830Z,8.67
2018-12-18T23:45:35.358Z,8.53
2018-12-18T23:48:03.956Z,8.70
2018-12-18T23:50:32.557Z,7.87
2018-12-18T23:53:01.017Z,8.47
2018-12-18T23:55:29.551Z,9.07
2018-12-18T23:57:58.054Z,8.53
